createdAt,value
2023-04-09T00:06:20.518Z,3.70
2023-04-09T00:26:22.099Z,3.72
2023-04-09T00:46:23.962Z,3.77
2023-04-09T01:06:25.484Z,3.80
2023-04-09T01:26:27.002Z,3.67
2023-04-09T01:46:30.382Z,3.40
2023-04-09T02:06:32.206Z,3.19
2023-04-09T02:26:33.929Z,3.17
2023-04-09T02:46:35.507Z,3.26
2023-04-09T03:06:37.549Z,3.11
2023-04-09T03:26:39.200Z,3.24
2023-04-09T03:46:42.283Z,3.55
2023-04-09T04:06:48.923Z,3.63
2023-04-09T04:27:05.795Z,3.80
2023-04-09T04:47:10.054Z,4.04
2023-04-09T05:07:11.817Z,4.11
2023-04-09T05:27:22.222Z,4.22
2023-04-09T05:47:28.455Z,4.66
2023-04-09T06:07:36.234Z,5.23
2023-04-09T06:27:38.637Z,5.32
2023-04-09T06:47:40.146Z,6.03
2023-04-09T07:07:41.773Z,6.18
2023-04-09T07:27:43.399Z,6.51
2023-04-09T07:47:45.020Z,6.38
2023-04-09T08:07:46.778Z,6.33
2023-04-09T08:27:48.265Z,6.80
2023-04-09T08:47:50.010Z,7.02
2023-04-09T09:07:51.649Z,6.57
2023-04-09T09:27:53.258Z,6.48
2023-04-09T09:47:54.926Z,6.51
2023-04-09T10:07:56.737Z,7.71
2023-04-09T10:27:58.362Z,7.65
2023-04-09T10:48:00.432Z,8.14
2023-04-09T11:08:02.216Z,8.35
2023-04-09T11:28:03.708Z,7.90
2023-04-09T11:48:05.571Z,6.51
2023-04-09T12:08:07.388Z,7.23
2023-04-09T12:28:09.134Z,7.13
2023-04-09T13:29:46.325Z,9.39
2023-04-09T13:49:48.107Z,9.09
2023-04-09T14:09:52.731Z,9.40
2023-04-09T14:29:54.214Z,9.62
2023-04-09T14:49:56.147Z,9.28
2023-04-09T15:09:57.966Z,10.14
2023-04-09T15:30:19.992Z,9.77
2023-04-09T15:50:40.170Z,9.41
2023-04-09T16:11:20.332Z,9.12
2023-04-09T16:31:40.967Z,8.44
2023-04-09T16:52:05.600Z,8.31
2023-04-09T17:12:26.614Z,7.82
2023-04-09T17:32:28.694Z,7.30
2023-04-09T17:52:30.385Z,7.02
2023-04-09T18:12:32.579Z,7.06
2023-04-09T18:32:34.575Z,6.95
2023-04-09T18:52:40.217Z,6.89
2023-04-09T19:12:43.027Z,6.82
2023-04-09T19:32:44.995Z,6.78
2023-04-09T19:52:46.717Z,6.46
2023-04-09T20:12:48.364Z,6.24
2023-04-09T20:32:49.907Z,6.01
2023-04-09T20:52:51.789Z,5.97
2023-04-09T21:12:53.421Z,5.45
2023-04-09T21:32:55.132Z,5.45
2023-04-09T21:52:56.802Z,5.47
2023-04-09T22:12:58.379Z,5.40
2023-04-09T22:33:00.411Z,5.51
2023-04-09T22:53:01.961Z,4.80
2023-04-09T23:13:03.730Z,4.27
2023-04-09T23:33:05.241Z,4.14
2023-04-09T23:53:07.077Z,3.95
